Time;durP1;ratioP1;P1;durP2;ratioP2;P2;SDS_P1;SDS_P2;PMS_P1;PMS_P2;Temp;Humidity;BMP_temperature;BMP_pressure;BME280_temperature;BME280_humidity;BME280_pressure;Samples;Min_cycle;Max_cycle;Signal;HPM_P1;HPM_P2
2023/03/24 00:01:55;;;;;;;60.92;28.73;;;;;;;;;;4823685;29;20050;-82
2023/03/24 00:04:41;;;;;;;62.83;30.30;;;;;;;;;;4816919;29;20054;-84
2023/03/24 00:07:29;;;;;;;57.00;28.63;;;;;;;;;;4824616;29;20047;-82
2023/03/24 00:10:17;;;;;;;60.47;26.52;;;;;;;;;;4817158;29;20054;-85
2023/03/24 00:13:02;;;;;;;56.47;25.67;;;;;;;;;;4816809;29;20489;-80
2023/03/24 00:15:47;;;;;;;49.13;23.85;;;;;;;;;;4816702;29;20062;-81
2023/03/24 00:18:35;;;;;;;44.13;21.25;;;;;;;;;;4824586;29;20389;-81
2023/03/24 00:21:23;;;;;;;42.88;19.63;;;;;;;;;;4824023;29;20054;-81
2023/03/24 00:24:10;;;;;;;29.13;16.23;;;;;;;;;;4811036;29;20062;-83
2023/03/24 00:26:56;;;;;;;24.73;14.30;;;;;;;;;;4817060;29;20054;-82
2023/03/24 00:29:42;;;;;;;24.58;13.63;;;;;;;;;;4816282;29;20054;-81
2023/03/24 00:32:29;;;;;;;16.17;8.98;;;;;;;;;;4816611;29;20062;-82
2023/03/24 00:35:16;;;;;;;54.72;22.20;;;;;;;;;;4829413;29;20150;-82
2023/03/24 00:38:03;;;;;;;54.30;22.52;;;;;;;;;;4816209;29;20396;-84
2023/03/24 00:40:49;;;;;;;43.42;20.25;;;;;;;;;;4824076;29;20440;-85
2023/03/24 00:43:35;;;;;;;45.72;21.08;;;;;;;;;;4827203;29;20050;-82
2023/03/24 00:46:29;;;;;;;53.08;21.95;;;;;;;;;;4826551;29;20054;-83
2023/03/24 00:49:15;;;;;;;43.10;20.45;;;;;;;;;;4819874;29;20412;-82
2023/03/24 00:52:08;;;;;;;41.95;18.58;;;;;;;;;;4826869;29;20042;-82
2023/03/24 00:54:56;;;;;;;52.08;20.42;;;;;;;;;;4819824;29;20054;-83
2023/03/24 00:57:50;;;;;;;41.45;19.35;;;;;;;;;;4806882;29;20072;-83
2023/03/24 01:00:40;;;;;;;31.77;17.33;;;;;;;;;;4832336;29;20492;-83
2023/03/24 01:03:26;;;;;;;36.10;17.45;;;;;;;;;;4826989;29;20516;-83
2023/03/24 01:06:11;;;;;;;30.75;17.27;;;;;;;;;;4819443;29;20054;-84
2023/03/24 01:08:56;;;;;;;28.23;16.00;;;;;;;;;;4813925;29;20054;-84
2023/03/24 01:11:41;;;;;;;26.65;15.02;;;;;;;;;;4818973;29;20046;-82
2023/03/24 01:14:27;;;;;;;29.20;15.98;;;;;;;;;;4827146;29;20461;-81
2023/03/24 01:17:12;;;;;;;20.98;12.25;;;;;;;;;;4819139;29;20050;-84
2023/03/24 01:19:58;;;;;;;19.10;11.60;;;;;;;;;;4826289;29;20054;-85
2023/03/24 01:22:45;;;;;;;20.45;10.30;;;;;;;;;;4819581;29;20504;-83
2023/03/24 01:25:30;;;;;;;26.05;12.40;;;;;;;;;;4826669;29;20480;-83
2023/03/24 01:28:20;;;;;;;21.60;12.45;;;;;;;;;;4819248;29;20492;-82
2023/03/24 01:31:08;;;;;;;20.27;11.73;;;;;;;;;;4819383;29;20050;-82
2023/03/24 01:33:54;;;;;;;29.42;11.98;;;;;;;;;;4818920;29;20050;-82
2023/03/24 01:36:39;;;;;;;29.23;15.23;;;;;;;;;;4827086;29;20396;-84
2023/03/24 01:39:25;;;;;;;27.88;15.23;;;;;;;;;;4818302;29;20493;-84
2023/03/24 01:42:18;;;;;;;28.15;15.55;;;;;;;;;;4826580;29;20488;-84
2023/03/24 01:45:40;;;;;;;25.88;13.88;;;;;;;;;;4825744;29;20058;-84
2023/03/24 01:48:28;;;;;;;25.63;13.23;;;;;;;;;;4800892;29;20055;-82
2023/03/24 01:51:25;;;;;;;20.45;12.40;;;;;;;;;;4813557;29;20050;-84
2023/03/24 01:54:18;;;;;;;21.63;11.93;;;;;;;;;;4799403;29;20500;-82
2023/03/24 01:57:11;;;;;;;25.48;12.35;;;;;;;;;;4813303;29;20046;-83
2023/03/24 02:00:03;;;;;;;24.40;13.52;;;;;;;;;;4800038;29;20300;-82
2023/03/24 02:03:29;;;;;;;26.75;13.25;;;;;;;;;;4813317;29;20050;-82
2023/03/24 02:06:17;;;;;;;21.95;12.35;;;;;;;;;;4800362;29;20059;-83
2023/03/24 02:09:03;;;;;;;23.85;11.68;;;;;;;;;;4799787;29;20054;-84
2023/03/24 02:11:49;;;;;;;18.15;11.23;;;;;;;;;;4813299;29;20051;-82
2023/03/24 02:14:35;;;;;;;22.73;12.00;;;;;;;;;;4812536;29;20055;-85
2023/03/24 02:17:45;;;;;;;25.20;14.27;;;;;;;;;;4813018;29;20404;-82
2023/03/24 02:20:41;;;;;;;24.73;14.57;;;;;;;;;;4799862;29;20054;-84
2023/03/24 02:24:03;;;;;;;27.20;14.57;;;;;;;;;;4812818;29;20050;-85
2023/03/24 02:27:22;;;;;;;22.60;13.00;;;;;;;;;;4813074;29;20476;-84
2023/03/24 02:30:14;;;;;;;25.10;12.93;;;;;;;;;;4807034;29;20055;-84
2023/03/24 02:33:06;;;;;;;29.55;16.95;;;;;;;;;;4812414;29;20400;-84
2023/03/24 02:36:02;;;;;;;34.45;19.63;;;;;;;;;;4812283;29;20051;-84
2023/03/24 02:39:25;;;;;;;38.42;23.67;;;;;;;;;;4799836;29;20485;-84
2023/03/24 02:42:49;;;;;;;40.13;24.83;;;;;;;;;;4799408;29;20051;-82
2023/03/24 02:46:21;;;;;;;39.47;23.95;;;;;;;;;;4770901;29;20063;-82
2023/03/24 02:49:18;;;;;;;26.98;17.75;;;;;;;;;;4769120;30;20051;-84
2023/03/24 02:52:14;;;;;;;29.10;18.02;;;;;;;;;;4769321;30;20056;-82
2023/03/24 02:55:16;;;;;;;27.10;15.70;;;;;;;;;;4799434;29;20050;-82
2023/03/24 02:58:06;;;;;;;21.25;12.82;;;;;;;;;;4793038;29;20051;-82
2023/03/24 03:01:14;;;;;;;21.67;12.70;;;;;;;;;;4799322;29;20051;-85
2023/03/24 03:04:44;;;;;;;30.20;15.20;;;;;;;;;;4802323;29;20059;-86
2023/03/24 03:07:36;;;;;;;21.30;11.23;;;;;;;;;;4799496;29;20501;-84
2023/03/24 03:10:31;;;;;;;20.90;10.63;;;;;;;;;;4799013;29;20050;-83
2023/03/24 03:13:20;;;;;;;18.13;10.60;;;;;;;;;;4812200;29;20055;-83
2023/03/24 03:16:18;;;;;;;18.00;11.63;;;;;;;;;;4812182;29;20393;-82
2023/03/24 03:19:27;;;;;;;42.28;18.77;;;;;;;;;;4805592;29;20051;-83
2023/03/24 03:22:22;;;;;;;49.38;23.90;;;;;;;;;;4799405;29;20047;-84
2023/03/24 03:25:09;;;;;;;35.45;17.88;;;;;;;;;;4798707;29;20493;-82
2023/03/24 03:27:57;;;;;;;33.85;17.70;;;;;;;;;;4798946;29;20047;-84
2023/03/24 03:30:58;;;;;;;31.25;15.70;;;;;;;;;;4806381;29;20054;-84
2023/03/24 03:33:56;;;;;;;31.10;15.48;;;;;;;;;;4798769;29;20058;-83
2023/03/24 03:36:56;;;;;;;26.52;13.73;;;;;;;;;;4799068;29;20409;-83
2023/03/24 03:40:03;;;;;;;63.95;29.98;;;;;;;;;;4811291;29;20432;-83
2023/03/24 03:42:52;;;;;;;28.48;14.52;;;;;;;;;;4799296;29;20071;-83
2023/03/24 03:45:37;;;;;;;32.28;17.17;;;;;;;;;;4811480;29;20050;-82
2023/03/24 03:48:25;;;;;;;42.20;20.40;;;;;;;;;;4798981;29;20055;-82
2023/03/24 03:51:12;;;;;;;33.92;18.50;;;;;;;;;;4798982;29;20063;-85
2023/03/24 03:54:01;;;;;;;48.70;24.05;;;;;;;;;;4811350;29;20055;-82
2023/03/24 03:56:49;;;;;;;45.83;23.73;;;;;;;;;;4799758;29;20389;-85
2023/03/24 03:59:38;;;;;;;47.88;21.55;;;;;;;;;;4798557;29;20055;-83
2023/03/24 04:02:41;;;;;;;33.03;17.75;;;;;;;;;;4798743;29;20493;-85
2023/03/24 04:05:29;;;;;;;27.50;14.15;;;;;;;;;;4798832;29;20493;-84
2023/03/24 04:08:28;;;;;;;23.75;13.27;;;;;;;;;;4805672;29;20059;-86
2023/03/24 04:11:44;;;;;;;24.55;12.63;;;;;;;;;;4798656;29;20054;-84
2023/03/24 04:15:50;;;;;;;30.60;13.35;;;;;;;;;;4811211;29;20055;-83
2023/03/24 04:19:04;;;;;;;23.75;12.02;;;;;;;;;;4736953;30;20052;-83
2023/03/24 04:22:20;;;;;;;21.98;13.00;;;;;;;;;;4734164;29;20056;-83
2023/03/24 04:25:57;;;;;;;22.15;13.18;;;;;;;;;;4802580;29;20059;-82
2023/03/24 04:28:57;;;;;;;27.30;13.02;;;;;;;;;;4793847;29;20055;-81
2023/03/24 04:31:52;;;;;;;31.50;16.13;;;;;;;;;;4802283;29;20043;-86
2023/03/24 04:34:43;;;;;;;38.17;18.90;;;;;;;;;;4801878;29;20047;-82
2023/03/24 04:37:47;;;;;;;28.75;16.13;;;;;;;;;;4802333;29;20051;-83
2023/03/24 04:40:40;;;;;;;26.90;13.43;;;;;;;;;;4801466;29;20051;-85
2023/03/24 04:43:35;;;;;;;20.20;12.48;;;;;;;;;;4814661;29;20059;-80
2023/03/24 04:46:21;;;;;;;19.30;12.10;;;;;;;;;;4816609;29;20050;-81
2023/03/24 04:49:14;;;;;;;24.85;12.45;;;;;;;;;;4820744;29;20404;-82
2023/03/24 04:52:00;;;;;;;30.35;17.15;;;;;;;;;;4820182;29;20481;-87
2023/03/24 04:54:48;;;;;;;37.65;20.25;;;;;;;;;;4817919;29;20405;-85
2023/03/24 04:57:34;;;;;;;37.10;21.27;;;;;;;;;;4811868;29;20058;-84
2023/03/24 05:00:23;;;;;;;43.40;22.60;;;;;;;;;;4815360;29;20050;-81
2023/03/24 05:03:13;;;;;;;33.88;19.35;;;;;;;;;;4827535;29;20050;-83
2023/03/24 05:05:58;;;;;;;31.95;18.83;;;;;;;;;;4817844;29;20053;-86
2023/03/24 05:08:43;;;;;;;34.70;18.20;;;;;;;;;;4806075;29;20412;-84
2023/03/24 05:11:29;;;;;;;50.40;23.17;;;;;;;;;;4804355;29;20046;-86
2023/03/24 05:14:23;;;;;;;40.47;21.17;;;;;;;;;;4809182;29;20059;-86
2023/03/24 05:17:11;;;;;;;46.60;23.23;;;;;;;;;;4811340;29;20051;-85
2023/03/24 05:19:57;;;;;;;38.92;20.50;;;;;;;;;;4803395;29;20042;-84
2023/03/24 05:22:43;;;;;;;37.38;20.83;;;;;;;;;;4810552;29;20055;-83
2023/03/24 05:25:28;;;;;;;35.60;19.10;;;;;;;;;;4788694;29;20050;-85
2023/03/24 05:28:13;;;;;;;35.75;17.35;;;;;;;;;;4801010;29;20058;-84
2023/03/24 05:31:00;;;;;;;32.45;18.40;;;;;;;;;;4801120;29;20063;-83
2023/03/24 05:33:56;;;;;;;28.63;16.20;;;;;;;;;;4813779;29;20493;-85
2023/03/24 05:36:43;;;;;;;28.50;15.77;;;;;;;;;;4801336;29;20485;-82
2023/03/24 05:39:31;;;;;;;26.63;14.95;;;;;;;;;;4788543;29;20081;-83
2023/03/24 05:42:37;;;;;;;23.95;14.63;;;;;;;;;;4807530;29;20489;-86
2023/03/24 05:45:24;;;;;;;23.95;12.88;;;;;;;;;;4800671;29;20058;-84
2023/03/24 05:48:09;;;;;;;22.83;11.60;;;;;;;;;;4805131;29;20055;-86
2023/03/24 05:51:22;;;;;;;20.30;11.82;;;;;;;;;;4808366;29;20054;-81
2023/03/24 05:54:18;;;;;;;22.45;13.20;;;;;;;;;;4806374;29;20051;-85
2023/03/24 05:57:09;;;;;;;26.25;14.23;;;;;;;;;;4819019;29;20047;-84
2023/03/24 06:00:15;;;;;;;26.00;14.27;;;;;;;;;;4818123;29;20047;-84
2023/03/24 06:03:01;;;;;;;28.25;16.02;;;;;;;;;;4818614;29;20051;-85
2023/03/24 06:05:53;;;;;;;34.42;19.92;;;;;;;;;;4805261;29;20055;-82
2023/03/24 06:08:39;;;;;;;37.90;21.55;;;;;;;;;;4819190;29;20492;-85
2023/03/24 06:11:25;;;;;;;37.67;23.02;;;;;;;;;;4820431;29;20054;-84
2023/03/24 06:14:20;;;;;;;43.28;24.38;;;;;;;;;;4805635;29;20495;-87
2023/03/24 06:17:17;;;;;;;39.75;23.92;;;;;;;;;;4834966;29;20054;-84
2023/03/24 06:20:12;;;;;;;42.08;22.25;;;;;;;;;;4835374;29;20049;-84
2023/03/24 06:23:06;;;;;;;34.90;18.70;;;;;;;;;;4818364;29;20046;-86
2023/03/24 06:26:08;;;;;;;26.73;16.25;;;;;;;;;;4820651;29;20050;-86
2023/03/24 06:28:53;;;;;;;22.83;14.35;;;;;;;;;;4815084;29;20054;-86
2023/03/24 06:31:41;;;;;;;23.08;14.45;;;;;;;;;;4804656;29;20055;-85
2023/03/24 06:34:28;;;;;;;27.48;16.63;;;;;;;;;;4809349;29;20484;-87
2023/03/24 06:37:30;;;;;;;28.67;17.77;;;;;;;;;;4806116;29;20062;-86
2023/03/24 06:40:19;;;;;;;27.30;17.50;;;;;;;;;;4817874;29;20050;-84
2023/03/24 06:43:10;;;;;;;23.30;15.17;;;;;;;;;;4805227;29;20046;-84
2023/03/24 06:45:58;;;;;;;30.92;15.23;;;;;;;;;;4765035;29;1152194;-84
2023/03/24 06:48:43;;;;;;;29.58;15.00;;;;;;;;;;4816843;29;20046;-86
2023/03/24 06:51:29;;;;;;;20.95;13.85;;;;;;;;;;4804853;29;20038;-85
2023/03/24 06:54:15;;;;;;;19.98;13.80;;;;;;;;;;4816832;29;20408;-83
2023/03/24 06:57:00;;;;;;;24.67;15.20;;;;;;;;;;4804950;29;20054;-87
2023/03/24 06:59:58;;;;;;;22.25;14.07;;;;;;;;;;4806749;29;20046;-84
2023/03/24 07:02:47;;;;;;;28.90;14.82;;;;;;;;;;4817415;29;20059;-86
2023/03/24 07:05:37;;;;;;;29.33;13.32;;;;;;;;;;4817508;29;20054;-86
2023/03/24 07:08:22;;;;;;;22.30;14.43;;;;;;;;;;4817688;29;20411;-86
2023/03/24 07:11:15;;;;;;;24.70;14.45;;;;;;;;;;4817860;29;20058;-85
2023/03/24 07:14:08;;;;;;;24.27;15.18;;;;;;;;;;4805873;29;20054;-86
2023/03/24 07:16:54;;;;;;;22.98;15.27;;;;;;;;;;4804766;29;20054;-83
2023/03/24 07:19:51;;;;;;;24.75;14.80;;;;;;;;;;4806053;29;20054;-85
2023/03/24 07:22:56;;;;;;;24.00;14.60;;;;;;;;;;4813608;29;20054;-84
2023/03/24 07:25:45;;;;;;;25.65;15.20;;;;;;;;;;4824969;29;20480;-85
2023/03/24 07:28:49;;;;;;;22.85;13.48;;;;;;;;;;4813788;29;20050;-86
2023/03/24 07:31:59;;;;;;;24.92;14.65;;;;;;;;;;4812771;29;20046;-87
2023/03/24 07:34:45;;;;;;;22.35;13.18;;;;;;;;;;4804559;29;20054;-84
2023/03/24 07:37:30;;;;;;;25.50;14.02;;;;;;;;;;4816971;29;20054;-86
2023/03/24 07:40:18;;;;;;;26.25;14.93;;;;;;;;;;4817251;29;20046;-85
2023/03/24 07:43:05;;;;;;;27.10;16.58;;;;;;;;;;4817003;29;20046;-84
2023/03/24 07:46:16;;;;;;;30.17;15.90;;;;;;;;;;4827262;29;20059;-86
2023/03/24 07:49:02;;;;;;;25.00;13.52;;;;;;;;;;4804381;29;20063;-88
2023/03/24 07:51:47;;;;;;;21.88;13.43;;;;;;;;;;4815925;29;20054;-86
2023/03/24 07:54:39;;;;;;;22.23;13.88;;;;;;;;;;4817345;29;20057;-82
2023/03/24 07:57:24;;;;;;;22.83;12.52;;;;;;;;;;4803735;29;20054;-84
2023/03/24 08:00:14;;;;;;;18.17;12.88;;;;;;;;;;4817439;29;20054;-86
2023/03/24 08:03:12;;;;;;;17.92;12.15;;;;;;;;;;4805674;29;20054;-86
2023/03/24 08:05:58;;;;;;;23.33;12.23;;;;;;;;;;4816464;29;20054;-85
2023/03/24 08:09:04;;;;;;;23.33;12.55;;;;;;;;;;4810762;29;20051;-84
2023/03/24 08:11:49;;;;;;;25.13;12.40;;;;;;;;;;4810908;29;20050;-83
2023/03/24 08:14:34;;;;;;;18.67;11.68;;;;;;;;;;4811037;29;20050;-84
2023/03/24 08:17:19;;;;;;;19.92;12.05;;;;;;;;;;4804111;29;20058;-86
2023/03/24 08:20:07;;;;;;;17.70;11.90;;;;;;;;;;4804069;29;20050;-88
2023/03/24 08:22:53;;;;;;;22.98;11.57;;;;;;;;;;4803606;29;20050;-85
2023/03/24 08:25:38;;;;;;;18.90;12.35;;;;;;;;;;4803721;29;20054;-84
2023/03/24 08:28:23;;;;;;;21.90;12.75;;;;;;;;;;4803865;29;20050;-86
2023/03/24 08:31:08;;;;;;;18.85;12.70;;;;;;;;;;4804141;29;20039;-85
2023/03/24 08:33:54;;;;;;;19.30;13.15;;;;;;;;;;4803810;29;20055;-88
2023/03/24 08:36:40;;;;;;;19.13;13.45;;;;;;;;;;4816976;29;20062;-87
2023/03/24 08:39:25;;;;;;;17.83;12.95;;;;;;;;;;4803680;29;20046;-87
2023/03/24 08:42:10;;;;;;;19.55;12.80;;;;;;;;;;4810684;29;20046;-85
2023/03/24 08:44:56;;;;;;;19.85;12.73;;;;;;;;;;4816683;29;20050;-85
2023/03/24 08:47:41;;;;;;;20.52;12.15;;;;;;;;;;4793387;29;20492;-85
2023/03/24 08:50:31;;;;;;;18.92;12.23;;;;;;;;;;4798718;29;20493;-85
2023/03/24 08:53:16;;;;;;;24.92;13.18;;;;;;;;;;4810914;29;20051;-85
2023/03/24 08:56:01;;;;;;;22.55;13.35;;;;;;;;;;4798463;29;20058;-84
2023/03/24 08:58:47;;;;;;;21.67;13.52;;;;;;;;;;4786228;29;20062;-87
2023/03/24 09:01:34;;;;;;;22.40;14.13;;;;;;;;;;4791871;29;20051;-84
2023/03/24 09:04:19;;;;;;;20.45;13.15;;;;;;;;;;4801821;29;20059;-84
2023/03/24 09:07:05;;;;;;;23.15;13.63;;;;;;;;;;4814312;29;20051;-86
2023/03/24 09:09:50;;;;;;;22.90;12.52;;;;;;;;;;4809256;29;20042;-82
2023/03/24 09:12:37;;;;;;;20.85;13.15;;;;;;;;;;4814345;29;20047;-84
2023/03/24 09:15:22;;;;;;;19.77;13.18;;;;;;;;;;4807778;29;20046;-84
2023/03/24 09:18:07;;;;;;;19.10;12.80;;;;;;;;;;4814054;29;20062;-84
2023/03/24 09:20:52;;;;;;;24.08;11.95;;;;;;;;;;4788663;29;20050;-83
2023/03/24 09:23:37;;;;;;;17.90;11.02;;;;;;;;;;4795349;29;20055;-83
2023/03/24 09:26:22;;;;;;;16.50;11.13;;;;;;;;;;4813790;29;20055;-84
2023/03/24 09:29:07;;;;;;;19.98;11.68;;;;;;;;;;4813582;29;20481;-88
2023/03/24 09:31:52;;;;;;;14.77;10.85;;;;;;;;;;4788568;29;20051;-83
2023/03/24 09:34:38;;;;;;;15.70;10.95;;;;;;;;;;4807347;29;20047;-83
2023/03/24 09:37:23;;;;;;;18.30;11.60;;;;;;;;;;4813816;29;20050;-83
2023/03/24 09:40:20;;;;;;;21.52;11.35;;;;;;;;;;4814128;29;20393;-83
2023/03/24 09:43:24;;;;;;;17.85;11.48;;;;;;;;;;4800812;29;20055;-82
2023/03/24 09:46:34;;;;;;;15.50;11.05;;;;;;;;;;4814973;29;20496;-84
2023/03/24 09:49:24;;;;;;;15.95;10.35;;;;;;;;;;4818675;29;20046;-80
2023/03/24 09:52:13;;;;;;;20.17;12.02;;;;;;;;;;4806515;29;20034;-81
2023/03/24 09:55:00;;;;;;;15.90;10.13;;;;;;;;;;4818820;29;20053;-80
2023/03/24 09:57:49;;;;;;;17.40;11.45;;;;;;;;;;4826123;29;20050;-80
2023/03/24 10:00:35;;;;;;;18.98;11.50;;;;;;;;;;4825251;29;20058;-80
2023/03/24 10:03:22;;;;;;;20.88;11.40;;;;;;;;;;4826184;29;20500;-79
2023/03/24 10:06:25;;;;;;;18.55;11.48;;;;;;;;;;4818840;29;20054;-79
2023/03/24 10:09:27;;;;;;;14.80;9.98;;;;;;;;;;4826226;29;20054;-80
2023/03/24 10:12:13;;;;;;;15.57;9.65;;;;;;;;;;4826610;29;20405;-80
2023/03/24 10:15:04;;;;;;;11.70;8.05;;;;;;;;;;4825199;29;20046;-80
2023/03/24 10:18:05;;;;;;;16.42;8.52;;;;;;;;;;4826050;29;20050;-80
2023/03/24 10:21:06;;;;;;;20.40;12.80;;;;;;;;;;4818176;29;20051;-80
2023/03/24 10:24:07;;;;;;;14.35;7.45;;;;;;;;;;4826026;29;20054;-79
2023/03/24 10:27:17;;;;;;;15.60;7.00;;;;;;;;;;4818289;29;20047;-78
2023/03/24 10:30:10;;;;;;;16.45;7.53;;;;;;;;;;4825960;29;20050;-80
2023/03/24 10:32:57;;;;;;;9.68;6.35;;;;;;;;;;4811352;29;20050;-80
2023/03/24 10:35:53;;;;;;;15.80;6.45;;;;;;;;;;4825673;29;20058;-79
2023/03/24 10:38:38;;;;;;;10.52;6.57;;;;;;;;;;4825354;29;20054;-82
2023/03/24 10:41:26;;;;;;;8.70;5.53;;;;;;;;;;4816699;29;20058;-81
2023/03/24 10:44:12;;;;;;;10.68;5.20;;;;;;;;;;4822854;29;20058;-79
2023/03/24 10:47:02;;;;;;;11.63;5.85;;;;;;;;;;4813481;29;20058;-78
2023/03/24 10:49:53;;;;;;;9.60;6.75;;;;;;;;;;4824122;29;20492;-77
2023/03/24 10:52:40;;;;;;;12.82;5.35;;;;;;;;;;4817458;29;20055;-79
2023/03/24 10:55:34;;;;;;;11.55;5.35;;;;;;;;;;4825834;29;20062;-79
2023/03/24 10:58:41;;;;;;;9.00;4.97;;;;;;;;;;4825446;29;20050;-78
2023/03/24 11:01:34;;;;;;;8.45;4.45;;;;;;;;;;4817260;29;20058;-78
2023/03/24 11:04:19;;;;;;;7.32;4.75;;;;;;;;;;4811540;29;20496;-79
2023/03/24 11:07:19;;;;;;;10.82;4.80;;;;;;;;;;4825147;29;20054;-78
2023/03/24 11:10:07;;;;;;;4.97;3.50;;;;;;;;;;4825134;29;20047;-77
2023/03/24 11:12:56;;;;;;;7.55;3.92;;;;;;;;;;4811400;29;20416;-80
2023/03/24 11:15:53;;;;;;;7.00;3.55;;;;;;;;;;4825812;29;20046;-79
2023/03/24 11:18:55;;;;;;;6.25;3.20;;;;;;;;;;4825271;29;20046;-80
2023/03/24 11:21:41;;;;;;;6.40;3.30;;;;;;;;;;4816920;29;20058;-79
2023/03/24 11:24:28;;;;;;;4.35;2.80;;;;;;;;;;4825515;29;20062;-79
2023/03/24 11:27:15;;;;;;;2.45;1.98;;;;;;;;;;4824822;29;20050;-80
2023/03/24 11:30:00;;;;;;;8.05;3.83;;;;;;;;;;4825099;29;20042;-79
2023/03/24 11:32:46;;;;;;;6.60;3.38;;;;;;;;;;4825365;29;20058;-81
2023/03/24 11:35:32;;;;;;;3.75;2.55;;;;;;;;;;4816958;29;20054;-80
2023/03/24 11:38:26;;;;;;;4.63;2.80;;;;;;;;;;4825235;29;20058;-79
2023/03/24 11:41:20;;;;;;;4.65;2.20;;;;;;;;;;4824935;29;20050;-79
2023/03/24 11:44:19;;;;;;;4.53;2.25;;;;;;;;;;4825156;29;20050;-80
2023/03/24 11:47:11;;;;;;;4.60;2.47;;;;;;;;;;4824874;29;20400;-79
2023/03/24 11:50:23;;;;;;;4.68;2.47;;;;;;;;;;4824640;29;20054;-79
2023/03/24 11:53:18;;;;;;;3.42;2.28;;;;;;;;;;4825330;29;20058;-78
2023/03/24 11:56:16;;;;;;;3.33;1.63;;;;;;;;;;4816880;29;20054;-81
2023/03/24 11:59:28;;;;;;;3.10;1.70;;;;;;;;;;4816931;29;20408;-80
2023/03/24 12:02:43;;;;;;;2.92;1.70;;;;;;;;;;4824350;29;20499;-81
2023/03/24 12:05:36;;;;;;;4.00;2.05;;;;;;;;;;4825023;29;20050;-79
2023/03/24 12:08:26;;;;;;;2.13;1.55;;;;;;;;;;4810932;29;20050;-79
2023/03/24 12:11:47;;;;;;;3.47;2.05;;;;;;;;;;4819068;29;20043;-78
2023/03/24 12:14:32;;;;;;;4.72;2.10;;;;;;;;;;4799014;29;20405;-78
2023/03/24 12:17:40;;;;;;;7.75;1.98;;;;;;;;;;4806158;29;20393;-80
2023/03/24 12:20:33;;;;;;;4.65;1.90;;;;;;;;;;4806208;29;20481;-80
2023/03/24 12:23:49;;;;;;;4.40;2.08;;;;;;;;;;4806016;29;20051;-80
2023/03/24 12:26:35;;;;;;;3.28;2.13;;;;;;;;;;4806188;29;20055;-79
2023/03/24 12:29:57;;;;;;;6.50;2.20;;;;;;;;;;4812900;29;20426;-78
2023/03/24 12:32:54;;;;;;;3.17;2.13;;;;;;;;;;4825230;29;20054;-81
2023/03/24 12:35:51;;;;;;;5.18;2.38;;;;;;;;;;4812119;29;20046;-79
2023/03/24 12:39:03;;;;;;;3.60;2.10;;;;;;;;;;4810938;29;20050;-78
2023/03/24 12:41:55;;;;;;;3.10;2.22;;;;;;;;;;4811939;29;20497;-79
2023/03/24 12:45:34;;;;;;;5.18;2.33;;;;;;;;;;4833703;29;20500;-79
2023/03/24 12:48:33;;;;;;;5.95;2.30;;;;;;;;;;4789268;30;20059;-79
2023/03/24 12:51:54;;;;;;;3.70;2.15;;;;;;;;;;4814266;29;20493;-80
2023/03/24 12:55:17;;;;;;;3.67;2.20;;;;;;;;;;4803292;29;20055;-79
2023/03/24 12:58:07;;;;;;;7.22;2.53;;;;;;;;;;4809226;29;20059;-78
2023/03/24 13:01:30;;;;;;;5.72;2.45;;;;;;;;;;4796179;29;20062;-77
2023/03/24 13:04:23;;;;;;;6.35;2.63;;;;;;;;;;4809464;29;20055;-78
2023/03/24 13:07:17;;;;;;;4.28;2.60;;;;;;;;;;4801886;29;20058;-81
2023/03/24 13:10:25;;;;;;;3.80;2.27;;;;;;;;;;4809245;29;20047;-77
2023/03/24 13:13:13;;;;;;;5.60;2.30;;;;;;;;;;4813926;29;20283;-80
2023/03/24 13:16:07;;;;;;;4.35;2.33;;;;;;;;;;4801621;29;20047;-78
2023/03/24 13:18:58;;;;;;;3.67;2.50;;;;;;;;;;4814275;29;20050;-79
2023/03/24 13:21:44;;;;;;;5.40;2.33;;;;;;;;;;4827138;29;20054;-78
2023/03/24 13:24:30;;;;;;;5.65;2.67;;;;;;;;;;4824824;29;20063;-79
2023/03/24 13:27:31;;;;;;;5.20;2.72;;;;;;;;;;4817500;29;20059;-79
2023/03/24 13:30:39;;;;;;;4.70;2.42;;;;;;;;;;4821517;29;20495;-78
2023/03/24 13:33:28;;;;;;;3.60;2.58;;;;;;;;;;4806245;29;20054;-78
2023/03/24 13:36:37;;;;;;;4.18;2.45;;;;;;;;;;4825866;29;20047;-78
2023/03/24 13:39:25;;;;;;;5.68;2.47;;;;;;;;;;4810610;29;20896;-78
2023/03/24 13:42:46;;;;;;;3.85;2.33;;;;;;;;;;4826349;29;20046;-79
2023/03/24 13:45:50;;;;;;;4.68;2.90;;;;;;;;;;4774029;29;20046;-79
2023/03/24 13:48:41;;;;;;;4.90;2.78;;;;;;;;;;4826444;29;20066;-79
2023/03/24 13:51:30;;;;;;;12.23;3.38;;;;;;;;;;4817637;29;20055;-78
2023/03/24 13:54:25;;;;;;;5.35;2.53;;;;;;;;;;4826022;29;20054;-80
2023/03/24 13:57:13;;;;;;;;;;;;;;;;;;4827183;29;20047;-78
2023/03/24 14:00:10;;;;;;;6.47;3.10;;;;;;;;;;4819328;29;20285;-80
2023/03/24 14:03:14;;;;;;;4.20;2.42;;;;;;;;;;4825649;29;20497;-79
2023/03/24 14:06:04;;;;;;;8.32;2.63;;;;;;;;;;4826188;29;20047;-78
2023/03/24 14:08:52;;;;;;;3.08;2.30;;;;;;;;;;4826064;29;20058;-79
2023/03/24 14:11:44;;;;;;;7.22;2.60;;;;;;;;;;4826255;29;20058;-78
2023/03/24 14:14:33;;;;;;;6.97;2.75;;;;;;;;;;4826399;29;20054;-79
2023/03/24 14:17:18;;;;;;;3.58;2.50;;;;;;;;;;4826235;29;20472;-80
2023/03/24 14:20:08;;;;;;;3.55;2.28;;;;;;;;;;4826221;29;20042;-78
2023/03/24 14:22:54;;;;;;;5.97;2.45;;;;;;;;;;4825549;29;20054;-80
2023/03/24 14:25:39;;;;;;;5.72;2.83;;;;;;;;;;4826202;29;20404;-80
2023/03/24 14:28:30;;;;;;;7.45;2.90;;;;;;;;;;4826039;29;20050;-80
2023/03/24 14:31:15;;;;;;;4.45;2.90;;;;;;;;;;4826276;29;20046;-80
2023/03/24 14:34:13;;;;;;;5.50;2.63;;;;;;;;;;4825883;29;20046;-78
2023/03/24 14:37:06;;;;;;;4.10;2.55;;;;;;;;;;4825422;29;20046;-77
2023/03/24 14:39:56;;;;;;;4.10;2.40;;;;;;;;;;4825670;29;20054;-78
2023/03/24 14:42:41;;;;;;;4.43;2.60;;;;;;;;;;4825140;29;20058;-79
2023/03/24 14:45:51;;;;;;;6.57;2.90;;;;;;;;;;4825950;29;20038;-78
2023/03/24 14:48:41;;;;;;;5.32;2.50;;;;;;;;;;4825452;29;20050;-76
2023/03/24 14:51:40;;;;;;;5.28;2.50;;;;;;;;;;4825304;29;20042;-78
2023/03/24 14:54:33;;;;;;;6.80;2.25;;;;;;;;;;4826077;29;20050;-77
2023/03/24 14:57:28;;;;;;;5.05;2.70;;;;;;;;;;4825222;29;20062;-79
2023/03/24 15:00:18;;;;;;;;;;;;;;;;;;4825162;29;20050;-78
2023/03/24 15:03:37;;;;;;;5.18;2.28;;;;;;;;;;4817832;29;19916;-78
2023/03/24 15:06:23;;;;;;;6.18;2.50;;;;;;;;;;4825155;29;20046;-79
2023/03/24 15:09:09;;;;;;;3.85;2.50;;;;;;;;;;4825265;29;20408;-78
2023/03/24 15:11:59;;;;;;;4.63;3.08;;;;;;;;;;4825062;29;20051;-78
2023/03/24 15:14:43;;;;;;;6.60;2.97;;;;;;;;;;4825054;29;20046;-80
2023/03/24 15:17:28;;;;;;;7.20;3.13;;;;;;;;;;4825655;29;20050;-78
2023/03/24 15:20:28;;;;;;;3.40;2.83;;;;;;;;;;4825560;29;20050;-78
2023/03/24 15:23:23;;;;;;;4.35;2.50;;;;;;;;;;4825344;29;20054;-79
2023/03/24 15:26:12;;;;;;;6.93;2.90;;;;;;;;;;4824971;29;20508;-78
2023/03/24 15:29:04;;;;;;;5.38;2.80;;;;;;;;;;4811417;29;20058;-77
2023/03/24 15:31:50;;;;;;;6.25;2.72;;;;;;;;;;4824601;29;20054;-78
2023/03/24 15:34:39;;;;;;;8.20;2.92;;;;;;;;;;4825347;29;20058;-77
2023/03/24 15:37:32;;;;;;;8.07;3.28;;;;;;;;;;4825296;29;20054;-78
2023/03/24 15:40:29;;;;;;;5.97;2.92;;;;;;;;;;4824756;29;20076;-79
2023/03/24 15:43:19;;;;;;;5.25;2.97;;;;;;;;;;4825267;29;20473;-78
2023/03/24 15:46:06;;;;;;;8.57;3.22;;;;;;;;;;4824848;29;20050;-79
2023/03/24 15:48:53;;;;;;;5.82;3.00;;;;;;;;;;4824765;29;20484;-79
2023/03/24 15:51:47;;;;;;;5.05;2.75;;;;;;;;;;4817326;29;20058;-78
2023/03/24 15:54:37;;;;;;;5.53;2.60;;;;;;;;;;4824576;29;20066;-79
2023/03/24 15:57:24;;;;;;;4.70;2.95;;;;;;;;;;4824780;29;20055;-79
2023/03/24 16:00:17;;;;;;;8.18;3.33;;;;;;;;;;4824701;29;20422;-78
2023/03/24 16:03:04;;;;;;;11.63;3.42;;;;;;;;;;4824943;29;20436;-79
2023/03/24 16:05:50;;;;;;;6.57;2.78;;;;;;;;;;4824913;29;20038;-79
2023/03/24 16:08:39;;;;;;;7.70;3.78;;;;;;;;;;4824351;29;20058;-78
2023/03/24 16:11:25;;;;;;;10.90;4.40;;;;;;;;;;4824753;29;20059;-79
2023/03/24 16:14:28;;;;;;;7.85;4.43;;;;;;;;;;4827488;29;20047;-79
2023/03/24 16:17:13;;;;;;;6.93;4.40;;;;;;;;;;4814010;29;20046;-80
2023/03/24 16:19:58;;;;;;;9.88;5.70;;;;;;;;;;4820449;29;20050;-80
2023/03/24 16:22:43;;;;;;;;;;;;;;;;;;4828125;29;20062;-79
2023/03/24 16:25:28;;;;;;;8.27;4.47;;;;;;;;;;4823736;29;19947;-80
2023/03/24 16:28:18;;;;;;;7.30;4.78;;;;;;;;;;4809652;29;20055;-79
2023/03/24 16:31:04;;;;;;;5.93;4.38;;;;;;;;;;4821808;29;20054;-79
2023/03/24 16:33:53;;;;;;;14.63;7.63;;;;;;;;;;4827797;29;20046;-77
2023/03/24 16:36:38;;;;;;;16.10;9.70;;;;;;;;;;4819863;29;20054;-79
2023/03/24 16:39:30;;;;;;;21.77;10.13;;;;;;;;;;4827691;29;20050;-80
2023/03/24 16:42:15;;;;;;;19.45;9.75;;;;;;;;;;4822698;29;20492;-80
2023/03/24 16:45:01;;;;;;;13.20;5.88;;;;;;;;;;4838481;29;20050;-79
2023/03/24 16:47:47;;;;;;;12.13;5.90;;;;;;;;;;4822099;29;20050;-79
2023/03/24 16:50:39;;;;;;;23.48;11.70;;;;;;;;;;4823363;29;20051;-80
2023/03/24 16:53:25;;;;;;;91.45;46.97;;;;;;;;;;4827468;29;20062;-80
2023/03/24 16:56:12;;;;;;;35.30;16.75;;;;;;;;;;4825339;29;20046;-77
2023/03/24 16:58:59;;;;;;;61.50;33.15;;;;;;;;;;4826223;29;20058;-79